sensor_id;sensor_type;location;lat;lon;timestamp;P1;durP1;ratioP1;P2;durP2;ratioP2
48665;SDS011;34452;50.796;4.994;2022-08-25T00:01:50;6.88;;;3.47;;
48665;SDS011;34452;50.796;4.994;2022-08-25T00:04:19;4.28;;;2.95;;
48665;SDS011;34452;50.796;4.994;2022-08-25T00:06:46;5.95;;;2.92;;
48665;SDS011;34452;50.796;4.994;2022-08-25T00:09:13;6.88;;;3.53;;
48665;SDS011;34452;50.796;4.994;2022-08-25T00:11:41;6.15;;;3.00;;
48665;SDS011;34452;50.796;4.994;2022-08-25T00:14:10;4.78;;;2.80;;
48665;SDS011;34452;50.796;4.994;2022-08-25T00:16:39;8.57;;;3.15;;
48665;SDS011;34452;50.796;4.994;2022-08-25T00:19:07;8.20;;;3.17;;
48665;SDS011;34452;50.796;4.994;2022-08-25T00:21:36;7.40;;;3.05;;
48665;SDS011;34452;50.796;4.994;2022-08-25T00:24:05;4.43;;;3.22;;
48665;SDS011;34452;50.796;4.994;2022-08-25T00:26:33;8.70;;;3.35;;
48665;SDS011;34452;50.796;4.994;2022-08-25T00:29:02;7.80;;;3.10;;
48665;SDS011;34452;50.796;4.994;2022-08-25T00:31:28;7.60;;;3.35;;
48665;SDS011;34452;50.796;4.994;2022-08-25T00:33:54;11.35;;;3.60;;
48665;SDS011;34452;50.796;4.994;2022-08-25T00:36:20;9.57;;;3.25;;
48665;SDS011;34452;50.796;4.994;2022-08-25T00:38:46;6.05;;;3.60;;
48665;SDS011;34452;50.796;4.994;2022-08-25T00:41:15;7.10;;;3.72;;
48665;SDS011;34452;50.796;4.994;2022-08-25T00:43:48;7.55;;;4.05;;
48665;SDS011;34452;50.796;4.994;2022-08-25T00:46:19;5.55;;;3.70;;
48665;SDS011;34452;50.796;4.994;2022-08-25T00:48:50;9.85;;;3.78;;
48665;SDS011;34452;50.796;4.994;2022-08-25T00:51:26;7.18;;;4.00;;
48665;SDS011;34452;50.796;4.994;2022-08-25T00:53:57;8.25;;;3.78;;
48665;SDS011;34452;50.796;4.994;2022-08-25T00:56:23;8.05;;;3.83;;
48665;SDS011;34452;50.796;4.994;2022-08-25T00:58:49;5.22;;;3.10;;
48665;SDS011;34452;50.796;4.994;2022-08-25T01:01:15;10.95;;;4.18;;
48665;SDS011;34452;50.796;4.994;2022-08-25T01:03:41;8.43;;;3.92;;
48665;SDS011;34452;50.796;4.994;2022-08-25T01:06:07;6.50;;;3.60;;
48665;SDS011;34452;50.796;4.994;2022-08-25T01:08:35;10.18;;;3.85;;
48665;SDS011;34452;50.796;4.994;2022-08-25T01:11:02;6.00;;;4.30;;
48665;SDS011;34452;50.796;4.994;2022-08-25T01:13:33;9.88;;;5.10;;
48665;SDS011;34452;50.796;4.994;2022-08-25T01:16:03;9.82;;;4.90;;
48665;SDS011;34452;50.796;4.994;2022-08-25T01:18:31;9.13;;;4.65;;
48665;SDS011;34452;50.796;4.994;2022-08-25T01:21:07;11.20;;;5.20;;
48665;SDS011;34452;50.796;4.994;2022-08-25T01:23:33;12.73;;;5.40;;
48665;SDS011;34452;50.796;4.994;2022-08-25T01:26:01;10.05;;;5.05;;
48665;SDS011;34452;50.796;4.994;2022-08-25T01:28:32;12.02;;;5.43;;
48665;SDS011;34452;50.796;4.994;2022-08-25T01:33:24;10.60;;;4.75;;
48665;SDS011;34452;50.796;4.994;2022-08-25T01:35:50;8.52;;;4.00;;
48665;SDS011;34452;50.796;4.994;2022-08-25T01:38:16;9.27;;;4.17;;
48665;SDS011;34452;50.796;4.994;2022-08-25T01:40:41;6.65;;;4.50;;
48665;SDS011;34452;50.796;4.994;2022-08-25T01:45:55;11.10;;;5.40;;
48665;SDS011;34452;50.796;4.994;2022-08-25T01:48:22;6.50;;;4.43;;
48665;SDS011;34452;50.796;4.994;2022-08-25T01:50:47;10.85;;;4.25;;
48665;SDS011;34452;50.796;4.994;2022-08-25T01:55:57;11.32;;;5.50;;
48665;SDS011;34452;50.796;4.994;2022-08-25T01:58:53;13.35;;;4.88;;
48665;SDS011;34452;50.796;4.994;2022-08-25T02:01:20;6.80;;;4.88;;
48665;SDS011;34452;50.796;4.994;2022-08-25T02:03:48;9.38;;;4.38;;
48665;SDS011;34452;50.796;4.994;2022-08-25T02:06:19;12.75;;;4.80;;
48665;SDS011;34452;50.796;4.994;2022-08-25T02:08:58;8.65;;;4.00;;
48665;SDS011;34452;50.796;4.994;2022-08-25T02:11:29;8.60;;;4.35;;
48665;SDS011;34452;50.796;4.994;2022-08-25T02:13:56;10.52;;;4.95;;
48665;SDS011;34452;50.796;4.994;2022-08-25T02:16:25;10.85;;;5.25;;
48665;SDS011;34452;50.796;4.994;2022-08-25T02:18:55;11.85;;;6.45;;
48665;SDS011;34452;50.796;4.994;2022-08-25T02:21:21;8.02;;;4.93;;
48665;SDS011;34452;50.796;4.994;2022-08-25T02:26:13;7.78;;;4.35;;
48665;SDS011;34452;50.796;4.994;2022-08-25T02:28:41;7.55;;;4.72;;
48665;SDS011;34452;50.796;4.994;2022-08-25T02:31:08;6.82;;;4.22;;
48665;SDS011;34452;50.796;4.994;2022-08-25T02:33:34;13.68;;;4.97;;
48665;SDS011;34452;50.796;4.994;2022-08-25T02:36:01;9.73;;;4.72;;
48665;SDS011;34452;50.796;4.994;2022-08-25T02:38:27;5.85;;;4.32;;
48665;SDS011;34452;50.796;4.994;2022-08-25T02:40:54;5.75;;;4.20;;
48665;SDS011;34452;50.796;4.994;2022-08-25T02:43:21;8.68;;;4.50;;
48665;SDS011;34452;50.796;4.994;2022-08-25T02:45:47;9.48;;;4.13;;
48665;SDS011;34452;50.796;4.994;2022-08-25T02:48:12;10.20;;;4.25;;
48665;SDS011;34452;50.796;4.994;2022-08-25T02:50:38;7.18;;;3.92;;
48665;SDS011;34452;50.796;4.994;2022-08-25T02:53:04;9.82;;;4.78;;
48665;SDS011;34452;50.796;4.994;2022-08-25T02:55:30;11.23;;;5.13;;
48665;SDS011;34452;50.796;4.994;2022-08-25T02:57:55;12.10;;;4.80;;
48665;SDS011;34452;50.796;4.994;2022-08-25T03:00:21;8.23;;;4.75;;
48665;SDS011;34452;50.796;4.994;2022-08-25T03:02:47;7.10;;;4.70;;
48665;SDS011;34452;50.796;4.994;2022-08-25T03:05:13;11.45;;;5.20;;
48665;SDS011;34452;50.796;4.994;2022-08-25T03:07:39;10.98;;;5.30;;
48665;SDS011;34452;50.796;4.994;2022-08-25T03:10:07;10.75;;;4.55;;
48665;SDS011;34452;50.796;4.994;2022-08-25T03:12:39;10.65;;;4.50;;
48665;SDS011;34452;50.796;4.994;2022-08-25T03:15:07;9.13;;;5.47;;
48665;SDS011;34452;50.796;4.994;2022-08-25T03:17:34;6.45;;;4.57;;
48665;SDS011;34452;50.796;4.994;2022-08-25T03:20:02;8.77;;;4.88;;
48665;SDS011;34452;50.796;4.994;2022-08-25T03:22:29;12.40;;;5.07;;
48665;SDS011;34452;50.796;4.994;2022-08-25T03:24:55;9.80;;;4.30;;
48665;SDS011;34452;50.796;4.994;2022-08-25T03:27:41;7.97;;;4.50;;
48665;SDS011;34452;50.796;4.994;2022-08-25T03:30:07;7.20;;;4.43;;
48665;SDS011;34452;50.796;4.994;2022-08-25T03:32:33;7.78;;;4.30;;
48665;SDS011;34452;50.796;4.994;2022-08-25T03:34:59;8.43;;;4.82;;
48665;SDS011;34452;50.796;4.994;2022-08-25T03:37:26;7.63;;;4.30;;
48665;SDS011;34452;50.796;4.994;2022-08-25T03:39:52;11.30;;;4.85;;
48665;SDS011;34452;50.796;4.994;2022-08-25T03:42:17;8.23;;;4.95;;
48665;SDS011;34452;50.796;4.994;2022-08-25T03:44:43;7.28;;;3.88;;
48665;SDS011;34452;50.796;4.994;2022-08-25T03:47:09;9.32;;;4.10;;
48665;SDS011;34452;50.796;4.994;2022-08-25T03:49:35;10.75;;;4.22;;
48665;SDS011;34452;50.796;4.994;2022-08-25T03:52:01;7.60;;;4.00;;
48665;SDS011;34452;50.796;4.994;2022-08-25T03:54:27;8.50;;;4.38;;
48665;SDS011;34452;50.796;4.994;2022-08-25T03:56:53;9.65;;;4.18;;
48665;SDS011;34452;50.796;4.994;2022-08-25T03:59:19;6.45;;;4.40;;
48665;SDS011;34452;50.796;4.994;2022-08-25T04:01:45;12.48;;;4.20;;
48665;SDS011;34452;50.796;4.994;2022-08-25T04:04:12;7.50;;;4.20;;
48665;SDS011;34452;50.796;4.994;2022-08-25T04:06:39;6.22;;;4.30;;
48665;SDS011;34452;50.796;4.994;2022-08-25T04:09:07;8.55;;;4.68;;
48665;SDS011;34452;50.796;4.994;2022-08-25T04:11:33;13.85;;;4.30;;
48665;SDS011;34452;50.796;4.994;2022-08-25T04:13:59;6.97;;;3.88;;
48665;SDS011;34452;50.796;4.994;2022-08-25T04:16:27;7.75;;;4.40;;
48665;SDS011;34452;50.796;4.994;2022-08-25T04:18:55;9.52;;;4.50;;
48665;SDS011;34452;50.796;4.994;2022-08-25T04:21:23;10.32;;;4.47;;
48665;SDS011;34452;50.796;4.994;2022-08-25T04:23:50;7.22;;;4.80;;
48665;SDS011;34452;50.796;4.994;2022-08-25T04:26:18;7.88;;;4.18;;
48665;SDS011;34452;50.796;4.994;2022-08-25T04:28:46;9.52;;;4.30;;
48665;SDS011;34452;50.796;4.994;2022-08-25T04:31:13;6.93;;;3.80;;
48665;SDS011;34452;50.796;4.994;2022-08-25T04:33:40;7.15;;;3.85;;
48665;SDS011;34452;50.796;4.994;2022-08-25T04:36:06;5.72;;;3.78;;
48665;SDS011;34452;50.796;4.994;2022-08-25T04:38:37;14.25;;;4.68;;
48665;SDS011;34452;50.796;4.994;2022-08-25T04:41:05;9.38;;;4.28;;
48665;SDS011;34452;50.796;4.994;2022-08-25T04:43:32;10.00;;;5.15;;
48665;SDS011;34452;50.796;4.994;2022-08-25T04:45:59;7.35;;;4.72;;
48665;SDS011;34452;50.796;4.994;2022-08-25T04:48:44;9.60;;;4.38;;
48665;SDS011;34452;50.796;4.994;2022-08-25T04:51:13;9.77;;;4.40;;
48665;SDS011;34452;50.796;4.994;2022-08-25T04:53:40;7.28;;;4.55;;
48665;SDS011;34452;50.796;4.994;2022-08-25T04:56:07;7.50;;;4.40;;
48665;SDS011;34452;50.796;4.994;2022-08-25T04:58:34;6.60;;;4.10;;
48665;SDS011;34452;50.796;4.994;2022-08-25T05:01:02;6.45;;;3.92;;
48665;SDS011;34452;50.796;4.994;2022-08-25T05:03:28;8.80;;;3.95;;
48665;SDS011;34452;50.796;4.994;2022-08-25T05:05:55;6.93;;;4.43;;
48665;SDS011;34452;50.796;4.994;2022-08-25T05:08:21;10.88;;;4.80;;
48665;SDS011;34452;50.796;4.994;2022-08-25T05:10:46;7.63;;;4.60;;
48665;SDS011;34452;50.796;4.994;2022-08-25T05:13:12;12.63;;;4.18;;
48665;SDS011;34452;50.796;4.994;2022-08-25T05:15:38;7.35;;;4.18;;
48665;SDS011;34452;50.796;4.994;2022-08-25T05:18:15;8.93;;;4.50;;
48665;SDS011;34452;50.796;4.994;2022-08-25T05:20:41;6.47;;;4.25;;
48665;SDS011;34452;50.796;4.994;2022-08-25T05:23:07;8.90;;;3.92;;
48665;SDS011;34452;50.796;4.994;2022-08-25T05:25:33;15.57;;;4.25;;
48665;SDS011;34452;50.796;4.994;2022-08-25T05:27:59;11.30;;;4.20;;
48665;SDS011;34452;50.796;4.994;2022-08-25T05:30:25;11.15;;;3.97;;
48665;SDS011;34452;50.796;4.994;2022-08-25T05:32:51;8.07;;;3.65;;
48665;SDS011;34452;50.796;4.994;2022-08-25T05:35:17;7.30;;;3.58;;
48665;SDS011;34452;50.796;4.994;2022-08-25T05:37:44;9.07;;;3.33;;
48665;SDS011;34452;50.796;4.994;2022-08-25T05:42:36;8.15;;;3.40;;
48665;SDS011;34452;50.796;4.994;2022-08-25T05:45:03;8.02;;;4.50;;
48665;SDS011;34452;50.796;4.994;2022-08-25T05:47:30;7.18;;;3.72;;
48665;SDS011;34452;50.796;4.994;2022-08-25T05:49:56;6.13;;;4.05;;
48665;SDS011;34452;50.796;4.994;2022-08-25T05:52:22;7.00;;;3.58;;
48665;SDS011;34452;50.796;4.994;2022-08-25T05:54:48;6.80;;;3.67;;
48665;SDS011;34452;50.796;4.994;2022-08-25T05:57:13;8.93;;;3.72;;
48665;SDS011;34452;50.796;4.994;2022-08-25T05:59:39;5.18;;;3.33;;
48665;SDS011;34452;50.796;4.994;2022-08-25T06:02:05;6.07;;;3.90;;
48665;SDS011;34452;50.796;4.994;2022-08-25T06:04:49;6.45;;;3.45;;
48665;SDS011;34452;50.796;4.994;2022-08-25T06:07:15;11.73;;;3.67;;
48665;SDS011;34452;50.796;4.994;2022-08-25T06:09:41;8.63;;;3.65;;
48665;SDS011;34452;50.796;4.994;2022-08-25T06:12:10;5.53;;;3.35;;
48665;SDS011;34452;50.796;4.994;2022-08-25T06:17:02;5.85;;;2.95;;
48665;SDS011;34452;50.796;4.994;2022-08-25T06:21:55;13.93;;;3.72;;
48665;SDS011;34452;50.796;4.994;2022-08-25T06:24:22;6.85;;;3.63;;
48665;SDS011;34452;50.796;4.994;2022-08-25T06:26:49;10.65;;;3.30;;
48665;SDS011;34452;50.796;4.994;2022-08-25T06:29:15;7.03;;;2.80;;
48665;SDS011;34452;50.796;4.994;2022-08-25T06:31:42;5.15;;;2.80;;
48665;SDS011;34452;50.796;4.994;2022-08-25T06:34:08;5.82;;;2.28;;
48665;SDS011;34452;50.796;4.994;2022-08-25T06:36:34;4.35;;;2.13;;
48665;SDS011;34452;50.796;4.994;2022-08-25T06:39:00;4.30;;;2.35;;
48665;SDS011;34452;50.796;4.994;2022-08-25T06:41:26;4.40;;;2.25;;
48665;SDS011;34452;50.796;4.994;2022-08-25T06:43:52;3.90;;;2.10;;
48665;SDS011;34452;50.796;4.994;2022-08-25T06:46:19;6.95;;;2.08;;
48665;SDS011;34452;50.796;4.994;2022-08-25T06:48:47;5.97;;;2.53;;
48665;SDS011;34452;50.796;4.994;2022-08-25T06:53:41;4.40;;;2.38;;
48665;SDS011;34452;50.796;4.994;2022-08-25T06:56:08;10.18;;;2.25;;
48665;SDS011;34452;50.796;4.994;2022-08-25T07:01:12;8.45;;;2.88;;
48665;SDS011;34452;50.796;4.994;2022-08-25T07:03:39;4.47;;;2.15;;
48665;SDS011;34452;50.796;4.994;2022-08-25T07:06:05;6.05;;;2.90;;
48665;SDS011;34452;50.796;4.994;2022-08-25T07:08:31;4.88;;;2.10;;
48665;SDS011;34452;50.796;4.994;2022-08-25T07:10:57;9.75;;;1.98;;
48665;SDS011;34452;50.796;4.994;2022-08-25T07:13:28;10.40;;;2.22;;
48665;SDS011;34452;50.796;4.994;2022-08-25T07:15:56;5.45;;;1.95;;
48665;SDS011;34452;50.796;4.994;2022-08-25T07:18:21;3.05;;;1.65;;
48665;SDS011;34452;50.796;4.994;2022-08-25T07:20:47;8.27;;;2.35;;
48665;SDS011;34452;50.796;4.994;2022-08-25T07:23:13;3.25;;;1.60;;
48665;SDS011;34452;50.796;4.994;2022-08-25T07:25:40;6.28;;;2.15;;
48665;SDS011;34452;50.796;4.994;2022-08-25T07:28:05;4.10;;;2.33;;
48665;SDS011;34452;50.796;4.994;2022-08-25T07:30:31;9.88;;;2.75;;
48665;SDS011;34452;50.796;4.994;2022-08-25T07:32:57;15.98;;;3.33;;
48665;SDS011;34452;50.796;4.994;2022-08-25T07:35:23;7.57;;;2.40;;
48665;SDS011;34452;50.796;4.994;2022-08-25T07:37:51;4.97;;;2.22;;
48665;SDS011;34452;50.796;4.994;2022-08-25T07:40:37;8.60;;;2.50;;
48665;SDS011;34452;50.796;4.994;2022-08-25T07:43:04;10.30;;;3.25;;
48665;SDS011;34452;50.796;4.994;2022-08-25T07:45:33;8.35;;;2.03;;
48665;SDS011;34452;50.796;4.994;2022-08-25T07:48:03;7.18;;;2.47;;
48665;SDS011;34452;50.796;4.994;2022-08-25T07:50:31;3.50;;;2.00;;
48665;SDS011;34452;50.796;4.994;2022-08-25T07:52:57;6.72;;;2.70;;
48665;SDS011;34452;50.796;4.994;2022-08-25T07:55:24;5.90;;;2.20;;
48665;SDS011;34452;50.796;4.994;2022-08-25T07:57:52;5.22;;;2.15;;
48665;SDS011;34452;50.796;4.994;2022-08-25T08:00:18;10.43;;;2.50;;
48665;SDS011;34452;50.796;4.994;2022-08-25T08:02:45;5.53;;;2.10;;
48665;SDS011;34452;50.796;4.994;2022-08-25T08:05:11;5.28;;;2.13;;
48665;SDS011;34452;50.796;4.994;2022-08-25T08:07:37;6.05;;;2.33;;
48665;SDS011;34452;50.796;4.994;2022-08-25T08:10:04;6.90;;;2.40;;
48665;SDS011;34452;50.796;4.994;2022-08-25T08:12:33;8.52;;;2.17;;
48665;SDS011;34452;50.796;4.994;2022-08-25T08:14:59;11.38;;;2.78;;
48665;SDS011;34452;50.796;4.994;2022-08-25T08:17:25;4.13;;;1.50;;
48665;SDS011;34452;50.796;4.994;2022-08-25T08:19:51;6.70;;;2.33;;
48665;SDS011;34452;50.796;4.994;2022-08-25T08:24:43;2.55;;;1.85;;
48665;SDS011;34452;50.796;4.994;2022-08-25T08:27:10;4.55;;;1.77;;
48665;SDS011;34452;50.796;4.994;2022-08-25T08:29:38;7.55;;;2.20;;
48665;SDS011;34452;50.796;4.994;2022-08-25T08:32:08;5.28;;;2.08;;
48665;SDS011;34452;50.796;4.994;2022-08-25T08:34:35;4.45;;;1.92;;
48665;SDS011;34452;50.796;4.994;2022-08-25T08:37:01;2.90;;;1.23;;
48665;SDS011;34452;50.796;4.994;2022-08-25T08:39:28;9.50;;;1.63;;
48665;SDS011;34452;50.796;4.994;2022-08-25T08:45:06;2.47;;;1.63;;
48665;SDS011;34452;50.796;4.994;2022-08-25T08:47:58;11.45;;;2.13;;
48665;SDS011;34452;50.796;4.994;2022-08-25T08:50:48;7.18;;;1.75;;
48665;SDS011;34452;50.796;4.994;2022-08-25T08:56:09;7.03;;;1.50;;
48665;SDS011;34452;50.796;4.994;2022-08-25T09:01:45;4.40;;;1.58;;
48665;SDS011;34452;50.796;4.994;2022-08-25T09:04:17;3.55;;;1.48;;
48665;SDS011;34452;50.796;4.994;2022-08-25T09:06:57;2.88;;;1.10;;
48665;SDS011;34452;50.796;4.994;2022-08-25T09:09:29;7.53;;;1.42;;
48665;SDS011;34452;50.796;4.994;2022-08-25T09:12:10;3.00;;;1.58;;
48665;SDS011;34452;50.796;4.994;2022-08-25T09:26:18;10.32;;;1.67;;
48665;SDS011;34452;50.796;4.994;2022-08-25T09:28:56;4.32;;;1.45;;
48665;SDS011;34452;50.796;4.994;2022-08-25T09:31:39;5.32;;;1.63;;
48665;SDS011;34452;50.796;4.994;2022-08-25T09:34:10;4.55;;;1.17;;
48665;SDS011;34452;50.796;4.994;2022-08-25T09:36:37;2.13;;;1.20;;
48665;SDS011;34452;50.796;4.994;2022-08-25T09:44:18;4.07;;;1.58;;
48665;SDS011;34452;50.796;4.994;2022-08-25T09:46:53;1.42;;;1.20;;
48665;SDS011;34452;50.796;4.994;2022-08-25T09:49:19;3.45;;;1.10;;
48665;SDS011;34452;50.796;4.994;2022-08-25T09:59:26;4.68;;;1.30;;
48665;SDS011;34452;50.796;4.994;2022-08-25T10:01:54;7.00;;;1.48;;
48665;SDS011;34452;50.796;4.994;2022-08-25T10:07:18;1.40;;;0.95;;
48665;SDS011;34452;50.796;4.994;2022-08-25T10:09:51;1.08;;;0.98;;
48665;SDS011;34452;50.796;4.994;2022-08-25T10:12:22;1.67;;;1.13;;
48665;SDS011;34452;50.796;4.994;2022-08-25T10:14:53;3.10;;;1.10;;
48665;SDS011;34452;50.796;4.994;2022-08-25T10:20:16;2.65;;;1.38;;
48665;SDS011;34452;50.796;4.994;2022-08-25T10:22:45;4.25;;;1.63;;
48665;SDS011;34452;50.796;4.994;2022-08-25T10:25:13;1.35;;;0.85;;
48665;SDS011;34452;50.796;4.994;2022-08-25T10:27:44;6.93;;;1.40;;
48665;SDS011;34452;50.796;4.994;2022-08-25T10:30:35;6.15;;;1.10;;
48665;SDS011;34452;50.796;4.994;2022-08-25T10:38:48;3.42;;;1.25;;
48665;SDS011;34452;50.796;4.994;2022-08-25T10:44:22;1.60;;;1.00;;
48665;SDS011;34452;50.796;4.994;2022-08-25T10:47:29;5.73;;;1.60;;
48665;SDS011;34452;50.796;4.994;2022-08-25T11:00:57;2.65;;;1.08;;
48665;SDS011;34452;50.796;4.994;2022-08-25T11:03:34;4.70;;;1.10;;
48665;SDS011;34452;50.796;4.994;2022-08-25T11:06:13;2.10;;;1.20;;
48665;SDS011;34452;50.796;4.994;2022-08-25T11:14:01;6.53;;;1.20;;
48665;SDS011;34452;50.796;4.994;2022-08-25T11:16:35;2.97;;;1.27;;
48665;SDS011;34452;50.796;4.994;2022-08-25T11:19:18;1.52;;;1.17;;
48665;SDS011;34452;50.796;4.994;2022-08-25T11:24:50;4.03;;;1.65;;
48665;SDS011;34452;50.796;4.994;2022-08-25T11:27:37;4.60;;;1.30;;
48665;SDS011;34452;50.796;4.994;2022-08-25T11:30:13;1.85;;;1.00;;
48665;SDS011;34452;50.796;4.994;2022-08-25T11:32:43;2.58;;;1.58;;
48665;SDS011;34452;50.796;4.994;2022-08-25T11:35:13;3.33;;;1.38;;
48665;SDS011;34452;50.796;4.994;2022-08-25T11:37:45;9.43;;;1.55;;
48665;SDS011;34452;50.796;4.994;2022-08-25T11:40:37;2.72;;;1.10;;
48665;SDS011;34452;50.796;4.994;2022-08-25T11:46:04;9.98;;;1.90;;
48665;SDS011;34452;50.796;4.994;2022-08-25T11:48:51;2.67;;;1.40;;
48665;SDS011;34452;50.796;4.994;2022-08-25T12:02:29;3.08;;;1.30;;
48665;SDS011;34452;50.796;4.994;2022-08-25T12:04:58;4.00;;;1.52;;
48665;SDS011;34452;50.796;4.994;2022-08-25T12:07:26;4.35;;;1.33;;
48665;SDS011;34452;50.796;4.994;2022-08-25T12:12:31;6.55;;;1.65;;
48665;SDS011;34452;50.796;4.994;2022-08-25T12:23:32;3.50;;;1.35;;
48665;SDS011;34452;50.796;4.994;2022-08-25T12:26:15;3.45;;;1.67;;
48665;SDS011;34452;50.796;4.994;2022-08-25T12:38:05;4.38;;;1.70;;
48665;SDS011;34452;50.796;4.994;2022-08-25T12:40:36;2.65;;;1.50;;
48665;SDS011;34452;50.796;4.994;2022-08-25T12:54:16;2.63;;;1.33;;
48665;SDS011;34452;50.796;4.994;2022-08-25T12:56:44;4.43;;;1.40;;
48665;SDS011;34452;50.796;4.994;2022-08-25T12:59:15;6.25;;;1.60;;
48665;SDS011;34452;50.796;4.994;2022-08-25T13:07:47;1.13;;;1.00;;
48665;SDS011;34452;50.796;4.994;2022-08-25T13:16:07;7.35;;;2.22;;
48665;SDS011;34452;50.796;4.994;2022-08-25T13:18:39;3.67;;;1.40;;
48665;SDS011;34452;50.796;4.994;2022-08-25T13:23:44;4.78;;;1.58;;
48665;SDS011;34452;50.796;4.994;2022-08-25T13:26:13;2.10;;;1.45;;
48665;SDS011;34452;50.796;4.994;2022-08-25T13:28:41;3.78;;;1.33;;
48665;SDS011;34452;50.796;4.994;2022-08-25T13:31:15;2.35;;;1.40;;
48665;SDS011;34452;50.796;4.994;2022-08-25T13:36:29;2.03;;;1.35;;
48665;SDS011;34452;50.796;4.994;2022-08-25T13:39:26;2.25;;;1.40;;
48665;SDS011;34452;50.796;4.994;2022-08-25T13:42:13;3.20;;;1.38;;
48665;SDS011;34452;50.796;4.994;2022-08-25T13:44:40;5.90;;;1.58;;
48665;SDS011;34452;50.796;4.994;2022-08-25T13:47:09;2.55;;;1.40;;
48665;SDS011;34452;50.796;4.994;2022-08-25T13:49:37;2.75;;;1.50;;
48665;SDS011;34452;50.796;4.994;2022-08-25T13:52:04;7.82;;;1.60;;
48665;SDS011;34452;50.796;4.994;2022-08-25T13:57:18;5.90;;;1.55;;
48665;SDS011;34452;50.796;4.994;2022-08-25T13:59:49;1.77;;;1.17;;
48665;SDS011;34452;50.796;4.994;2022-08-25T14:05:35;5.20;;;1.48;;
48665;SDS011;34452;50.796;4.994;2022-08-25T14:08:05;11.65;;;1.70;;
48665;SDS011;34452;50.796;4.994;2022-08-25T14:10:51;3.72;;;1.50;;
48665;SDS011;34452;50.796;4.994;2022-08-25T14:13:31;6.55;;;1.40;;
48665;SDS011;34452;50.796;4.994;2022-08-25T14:18:58;8.73;;;2.63;;
48665;SDS011;34452;50.796;4.994;2022-08-25T14:21:26;3.22;;;1.50;;
48665;SDS011;34452;50.796;4.994;2022-08-25T14:23:54;4.30;;;1.63;;
48665;SDS011;34452;50.796;4.994;2022-08-25T14:26:20;2.83;;;1.52;;
48665;SDS011;34452;50.796;4.994;2022-08-25T14:28:46;3.35;;;1.60;;
48665;SDS011;34452;50.796;4.994;2022-08-25T14:31:22;11.10;;;1.58;;
48665;SDS011;34452;50.796;4.994;2022-08-25T14:33:56;4.03;;;1.55;;
48665;SDS011;34452;50.796;4.994;2022-08-25T14:36:25;2.90;;;1.60;;
48665;SDS011;34452;50.796;4.994;2022-08-25T14:38:53;1.70;;;1.52;;
48665;SDS011;34452;50.796;4.994;2022-08-25T14:41:19;7.20;;;1.80;;
48665;SDS011;34452;50.796;4.994;2022-08-25T14:43:45;4.05;;;1.25;;
48665;SDS011;34452;50.796;4.994;2022-08-25T14:46:15;4.63;;;1.65;;
48665;SDS011;34452;50.796;4.994;2022-08-25T14:48:46;9.10;;;1.40;;
48665;SDS011;34452;50.796;4.994;2022-08-25T14:51:18;2.92;;;1.50;;
48665;SDS011;34452;50.796;4.994;2022-08-25T14:53:44;3.65;;;1.83;;
48665;SDS011;34452;50.796;4.994;2022-08-25T14:56:09;4.60;;;1.35;;
48665;SDS011;34452;50.796;4.994;2022-08-25T14:58:35;2.78;;;1.42;;
48665;SDS011;34452;50.796;4.994;2022-08-25T15:01:02;13.25;;;1.63;;
48665;SDS011;34452;50.796;4.994;2022-08-25T15:03:31;3.25;;;1.60;;
48665;SDS011;34452;50.796;4.994;2022-08-25T15:06:13;4.40;;;1.40;;
48665;SDS011;34452;50.796;4.994;2022-08-25T15:08:41;4.97;;;1.50;;
48665;SDS011;34452;50.796;4.994;2022-08-25T15:11:27;7.03;;;1.42;;
48665;SDS011;34452;50.796;4.994;2022-08-25T15:13:53;4.53;;;1.50;;
48665;SDS011;34452;50.796;4.994;2022-08-25T15:16:25;10.73;;;1.77;;
48665;SDS011;34452;50.796;4.994;2022-08-25T15:18:53;6.28;;;1.38;;
48665;SDS011;34452;50.796;4.994;2022-08-25T15:21:19;5.30;;;1.35;;
48665;SDS011;34452;50.796;4.994;2022-08-25T15:23:45;3.50;;;1.60;;
48665;SDS011;34452;50.796;4.994;2022-08-25T15:26:11;2.92;;;1.30;;
48665;SDS011;34452;50.796;4.994;2022-08-25T15:28:39;13.07;;;2.05;;
48665;SDS011;34452;50.796;4.994;2022-08-25T15:31:09;11.98;;;1.85;;
48665;SDS011;34452;50.796;4.994;2022-08-25T15:33:36;5.28;;;1.80;;
48665;SDS011;34452;50.796;4.994;2022-08-25T15:36:03;6.38;;;2.30;;
48665;SDS011;34452;50.796;4.994;2022-08-25T15:38:47;6.82;;;1.60;;
48665;SDS011;34452;50.796;4.994;2022-08-25T15:41:13;7.05;;;1.52;;
48665;SDS011;34452;50.796;4.994;2022-08-25T15:43:39;6.53;;;1.60;;
48665;SDS011;34452;50.796;4.994;2022-08-25T15:46:07;9.95;;;2.05;;
48665;SDS011;34452;50.796;4.994;2022-08-25T15:48:33;4.38;;;1.60;;
48665;SDS011;34452;50.796;4.994;2022-08-25T15:50:59;6.50;;;1.55;;
48665;SDS011;34452;50.796;4.994;2022-08-25T15:53:26;3.55;;;1.83;;
48665;SDS011;34452;50.796;4.994;2022-08-25T15:55:53;4.53;;;1.42;;
48665;SDS011;34452;50.796;4.994;2022-08-25T15:58:21;7.47;;;1.55;;
48665;SDS011;34452;50.796;4.994;2022-08-25T16:00:47;2.45;;;1.52;;
48665;SDS011;34452;50.796;4.994;2022-08-25T16:03:13;3.55;;;1.55;;
48665;SDS011;34452;50.796;4.994;2022-08-25T16:05:40;4.13;;;1.40;;
48665;SDS011;34452;50.796;4.994;2022-08-25T16:08:07;2.92;;;1.58;;
48665;SDS011;34452;50.796;4.994;2022-08-25T16:10:35;2.03;;;1.30;;
48665;SDS011;34452;50.796;4.994;2022-08-25T16:13:02;7.32;;;1.70;;
48665;SDS011;34452;50.796;4.994;2022-08-25T16:15:28;6.78;;;1.40;;
48665;SDS011;34452;50.796;4.994;2022-08-25T16:17:55;6.88;;;2.00;;
48665;SDS011;34452;50.796;4.994;2022-08-25T16:20:22;2.22;;;1.35;;
48665;SDS011;34452;50.796;4.994;2022-08-25T16:22:48;4.95;;;1.55;;
48665;SDS011;34452;50.796;4.994;2022-08-25T16:25:14;3.55;;;1.50;;
48665;SDS011;34452;50.796;4.994;2022-08-25T16:27:40;8.80;;;1.95;;
48665;SDS011;34452;50.796;4.994;2022-08-25T16:30:07;8.80;;;1.80;;
48665;SDS011;34452;50.796;4.994;2022-08-25T16:32:34;4.88;;;1.45;;
48665;SDS011;34452;50.796;4.994;2022-08-25T16:35:00;4.85;;;1.60;;
48665;SDS011;34452;50.796;4.994;2022-08-25T16:37:26;6.20;;;1.63;;
48665;SDS011;34452;50.796;4.994;2022-08-25T16:39:52;3.85;;;1.70;;
48665;SDS011;34452;50.796;4.994;2022-08-25T16:42:20;2.90;;;1.30;;
48665;SDS011;34452;50.796;4.994;2022-08-25T16:44:46;2.60;;;1.58;;
48665;SDS011;34452;50.796;4.994;2022-08-25T16:47:12;8.32;;;2.00;;
48665;SDS011;34452;50.796;4.994;2022-08-25T16:49:38;8.43;;;1.45;;
48665;SDS011;34452;50.796;4.994;2022-08-25T16:52:05;2.25;;;1.20;;
48665;SDS011;34452;50.796;4.994;2022-08-25T16:54:51;6.95;;;1.70;;
48665;SDS011;34452;50.796;4.994;2022-08-25T16:57:35;4.50;;;1.13;;
48665;SDS011;34452;50.796;4.994;2022-08-25T17:00:03;3.70;;;1.75;;
48665;SDS011;34452;50.796;4.994;2022-08-25T17:02:30;9.75;;;3.15;;
48665;SDS011;34452;50.796;4.994;2022-08-25T17:04:56;18.08;;;4.40;;
48665;SDS011;34452;50.796;4.994;2022-08-25T17:07:22;7.45;;;3.53;;
48665;SDS011;34452;50.796;4.994;2022-08-25T17:09:47;6.72;;;3.58;;
48665;SDS011;34452;50.796;4.994;2022-08-25T17:12:13;6.82;;;3.40;;
48665;SDS011;34452;50.796;4.994;2022-08-25T17:14:39;10.73;;;3.88;;
48665;SDS011;34452;50.796;4.994;2022-08-25T17:17:05;17.45;;;3.58;;
48665;SDS011;34452;50.796;4.994;2022-08-25T17:19:30;12.02;;;3.80;;
48665;SDS011;34452;50.796;4.994;2022-08-25T17:21:57;8.80;;;3.60;;
48665;SDS011;34452;50.796;4.994;2022-08-25T17:24:23;9.23;;;3.60;;
48665;SDS011;34452;50.796;4.994;2022-08-25T17:26:48;9.05;;;3.30;;
48665;SDS011;34452;50.796;4.994;2022-08-25T17:29:15;7.93;;;3.75;;
48665;SDS011;34452;50.796;4.994;2022-08-25T17:31:42;16.77;;;3.95;;
48665;SDS011;34452;50.796;4.994;2022-08-25T17:34:10;8.38;;;4.20;;
48665;SDS011;34452;50.796;4.994;2022-08-25T17:36:38;15.10;;;4.95;;
48665;SDS011;34452;50.796;4.994;2022-08-25T17:39:05;10.52;;;4.35;;
48665;SDS011;34452;50.796;4.994;2022-08-25T17:41:32;7.00;;;4.13;;